sensor_id;sensor_type;location;lat;lon;timestamp;temperature;humidity
2391;DHT22;22957;50.824;4.360;2023-08-12T00:01:16;22.60;99.90
2391;DHT22;22957;50.824;4.360;2023-08-12T00:03:42;22.70;99.90
2391;DHT22;22957;50.824;4.360;2023-08-12T00:06:08;22.60;99.90
2391;DHT22;22957;50.824;4.360;2023-08-12T00:08:33;22.70;99.90
2391;DHT22;22957;50.824;4.360;2023-08-12T00:10:59;22.70;99.90
2391;DHT22;22957;50.824;4.360;2023-08-12T00:13:24;22.70;99.90
2391;DHT22;22957;50.824;4.360;2023-08-12T00:15:51;22.70;99.90
2391;DHT22;22957;50.824;4.360;2023-08-12T00:18:17;22.70;99.90
2391;DHT22;22957;50.824;4.360;2023-08-12T00:20:42;22.80;99.90
2391;DHT22;22957;50.824;4.360;2023-08-12T00:23:08;23.00;99.90
2391;DHT22;22957;50.824;4.360;2023-08-12T00:25:34;22.80;99.90
2391;DHT22;22957;50.824;4.360;2023-08-12T00:27:59;22.80;99.90
2391;DHT22;22957;50.824;4.360;2023-08-12T00:30:25;22.60;99.90
2391;DHT22;22957;50.824;4.360;2023-08-12T00:32:51;22.70;99.90
2391;DHT22;22957;50.824;4.360;2023-08-12T00:35:16;22.80;99.90
2391;DHT22;22957;50.824;4.360;2023-08-12T00:37:42;22.70;99.90
2391;DHT22;22957;50.824;4.360;2023-08-12T00:40:08;22.80;99.90
2391;DHT22;22957;50.824;4.360;2023-08-12T00:42:34;22.70;99.90
2391;DHT22;22957;50.824;4.360;2023-08-12T00:45:00;22.60;99.90
2391;DHT22;22957;50.824;4.360;2023-08-12T00:47:26;22.50;99.90
2391;DHT22;22957;50.824;4.360;2023-08-12T00:49:52;22.50;99.90
2391;DHT22;22957;50.824;4.360;2023-08-12T00:52:17;22.60;99.90
2391;DHT22;22957;50.824;4.360;2023-08-12T00:54:44;22.60;99.90
2391;DHT22;22957;50.824;4.360;2023-08-12T00:57:09;22.70;99.90
2391;DHT22;22957;50.824;4.360;2023-08-12T00:59:35;22.60;99.90
2391;DHT22;22957;50.824;4.360;2023-08-12T01:02:03;22.60;99.90
2391;DHT22;22957;50.824;4.360;2023-08-12T01:04:29;22.70;99.90
2391;DHT22;22957;50.824;4.360;2023-08-12T01:06:55;22.50;99.90
2391;DHT22;22957;50.824;4.360;2023-08-12T01:09:21;22.50;99.90
2391;DHT22;22957;50.824;4.360;2023-08-12T01:12:13;22.40;99.90
2391;DHT22;22957;50.824;4.360;2023-08-12T01:14:58;22.40;99.90
2391;DHT22;22957;50.824;4.360;2023-08-12T01:17:28;22.40;99.90
2391;DHT22;22957;50.824;4.360;2023-08-12T01:19:55;22.50;99.90
2391;DHT22;22957;50.824;4.360;2023-08-12T01:22:23;22.40;99.90
2391;DHT22;22957;50.824;4.360;2023-08-12T01:24:51;22.40;99.90
2391;DHT22;22957;50.824;4.360;2023-08-12T01:27:17;22.50;99.90
2391;DHT22;22957;50.824;4.360;2023-08-12T01:29:45;22.40;99.90
2391;DHT22;22957;50.824;4.360;2023-08-12T01:37:35;22.60;99.90
2391;DHT22;22957;50.824;4.360;2023-08-12T01:40:02;22.60;99.90
2391;DHT22;22957;50.824;4.360;2023-08-12T01:42:33;22.40;99.90
2391;DHT22;22957;50.824;4.360;2023-08-12T01:44:59;22.50;99.90
2391;DHT22;22957;50.824;4.360;2023-08-12T01:47:27;22.40;99.90
2391;DHT22;22957;50.824;4.360;2023-08-12T01:49:53;22.40;99.90
2391;DHT22;22957;50.824;4.360;2023-08-12T01:52:19;22.30;99.90
2391;DHT22;22957;50.824;4.360;2023-08-12T01:54:44;22.40;99.90
2391;DHT22;22957;50.824;4.360;2023-08-12T01:57:10;22.40;99.90
2391;DHT22;22957;50.824;4.360;2023-08-12T01:59:36;22.40;99.90
2391;DHT22;22957;50.824;4.360;2023-08-12T02:02:02;22.50;99.90
2391;DHT22;22957;50.824;4.360;2023-08-12T02:04:28;22.50;99.90
2391;DHT22;22957;50.824;4.360;2023-08-12T02:06:54;22.40;99.90
2391;DHT22;22957;50.824;4.360;2023-08-12T02:09:20;22.30;99.90
2391;DHT22;22957;50.824;4.360;2023-08-12T02:11:46;22.40;99.90
2391;DHT22;22957;50.824;4.360;2023-08-12T02:14:11;22.50;99.90
2391;DHT22;22957;50.824;4.360;2023-08-12T02:16:37;22.40;99.90
2391;DHT22;22957;50.824;4.360;2023-08-12T02:19:03;22.40;99.90
2391;DHT22;22957;50.824;4.360;2023-08-12T02:21:29;22.50;99.90
2391;DHT22;22957;50.824;4.360;2023-08-12T02:23:54;22.50;99.90
2391;DHT22;22957;50.824;4.360;2023-08-12T02:26:20;22.50;99.90
2391;DHT22;22957;50.824;4.360;2023-08-12T02:28:45;22.40;99.90
2391;DHT22;22957;50.824;4.360;2023-08-12T02:31:11;22.50;99.90
2391;DHT22;22957;50.824;4.360;2023-08-12T02:33:37;22.30;99.90
2391;DHT22;22957;50.824;4.360;2023-08-12T02:36:02;22.20;99.90
2391;DHT22;22957;50.824;4.360;2023-08-12T02:38:28;22.20;99.90
2391;DHT22;22957;50.824;4.360;2023-08-12T02:40:54;22.20;99.90
2391;DHT22;22957;50.824;4.360;2023-08-12T02:43:20;22.10;99.90
2391;DHT22;22957;50.824;4.360;2023-08-12T02:45:46;22.00;99.90
2391;DHT22;22957;50.824;4.360;2023-08-12T02:48:12;22.00;99.90
2391;DHT22;22957;50.824;4.360;2023-08-12T02:50:38;22.10;99.90
2391;DHT22;22957;50.824;4.360;2023-08-12T02:53:05;22.00;99.90
2391;DHT22;22957;50.824;4.360;2023-08-12T02:55:31;21.90;99.90
2391;DHT22;22957;50.824;4.360;2023-08-12T02:58:00;22.00;99.90
2391;DHT22;22957;50.824;4.360;2023-08-12T03:00:27;22.00;99.90
2391;DHT22;22957;50.824;4.360;2023-08-12T03:02:53;22.00;99.90
2391;DHT22;22957;50.824;4.360;2023-08-12T03:05:19;22.00;99.90
2391;DHT22;22957;50.824;4.360;2023-08-12T03:07:45;22.00;99.90
2391;DHT22;22957;50.824;4.360;2023-08-12T03:10:10;22.10;99.90
2391;DHT22;22957;50.824;4.360;2023-08-12T03:12:36;22.20;99.90
2391;DHT22;22957;50.824;4.360;2023-08-12T03:15:03;22.20;99.90
2391;DHT22;22957;50.824;4.360;2023-08-12T03:17:28;22.10;99.90
2391;DHT22;22957;50.824;4.360;2023-08-12T03:19:54;22.00;99.90
2391;DHT22;22957;50.824;4.360;2023-08-12T03:22:20;21.80;99.90
2391;DHT22;22957;50.824;4.360;2023-08-12T03:24:46;21.80;99.90
2391;DHT22;22957;50.824;4.360;2023-08-12T03:27:11;21.90;99.90
2391;DHT22;22957;50.824;4.360;2023-08-12T03:29:37;21.90;99.90
2391;DHT22;22957;50.824;4.360;2023-08-12T03:32:02;22.00;99.90
2391;DHT22;22957;50.824;4.360;2023-08-12T03:34:28;22.00;99.90
2391;DHT22;22957;50.824;4.360;2023-08-12T03:36:55;22.00;99.90
2391;DHT22;22957;50.824;4.360;2023-08-12T03:39:20;21.90;99.90
2391;DHT22;22957;50.824;4.360;2023-08-12T03:41:46;21.80;99.90
2391;DHT22;22957;50.824;4.360;2023-08-12T03:44:12;21.70;99.90
2391;DHT22;22957;50.824;4.360;2023-08-12T03:46:37;21.60;99.90
2391;DHT22;22957;50.824;4.360;2023-08-12T03:49:03;21.60;99.90
2391;DHT22;22957;50.824;4.360;2023-08-12T03:51:29;21.50;99.90
2391;DHT22;22957;50.824;4.360;2023-08-12T03:53:54;21.30;99.90
2391;DHT22;22957;50.824;4.360;2023-08-12T03:56:20;21.30;99.90
2391;DHT22;22957;50.824;4.360;2023-08-12T03:58:45;21.20;99.90
2391;DHT22;22957;50.824;4.360;2023-08-12T04:01:11;21.20;99.90
2391;DHT22;22957;50.824;4.360;2023-08-12T04:03:36;21.10;99.90
2391;DHT22;22957;50.824;4.360;2023-08-12T04:06:02;21.00;99.90
2391;DHT22;22957;50.824;4.360;2023-08-12T04:08:28;21.00;99.90
2391;DHT22;22957;50.824;4.360;2023-08-12T04:10:54;21.10;99.90
2391;DHT22;22957;50.824;4.360;2023-08-12T04:13:20;21.10;99.90
2391;DHT22;22957;50.824;4.360;2023-08-12T04:15:50;21.20;99.90
2391;DHT22;22957;50.824;4.360;2023-08-12T04:18:16;21.10;99.90
2391;DHT22;22957;50.824;4.360;2023-08-12T04:20:42;21.10;99.90
2391;DHT22;22957;50.824;4.360;2023-08-12T04:23:08;21.10;99.90
2391;DHT22;22957;50.824;4.360;2023-08-12T04:25:33;21.10;99.90
2391;DHT22;22957;50.824;4.360;2023-08-12T04:27:59;21.10;99.90
2391;DHT22;22957;50.824;4.360;2023-08-12T04:30:24;21.10;99.90
2391;DHT22;22957;50.824;4.360;2023-08-12T04:32:50;21.00;99.90
2391;DHT22;22957;50.824;4.360;2023-08-12T04:35:15;21.10;99.90
2391;DHT22;22957;50.824;4.360;2023-08-12T04:37:41;21.00;99.90
2391;DHT22;22957;50.824;4.360;2023-08-12T04:40:07;21.10;99.90
2391;DHT22;22957;50.824;4.360;2023-08-12T04:42:33;21.10;99.90
2391;DHT22;22957;50.824;4.360;2023-08-12T04:44:59;21.10;99.90
2391;DHT22;22957;50.824;4.360;2023-08-12T04:47:24;21.00;99.90
2391;DHT22;22957;50.824;4.360;2023-08-12T04:49:50;21.00;99.90
2391;DHT22;22957;50.824;4.360;2023-08-12T04:52:16;21.10;99.90
2391;DHT22;22957;50.824;4.360;2023-08-12T04:54:42;21.10;99.90
2391;DHT22;22957;50.824;4.360;2023-08-12T04:57:08;21.10;99.90
2391;DHT22;22957;50.824;4.360;2023-08-12T04:59:33;21.10;99.90
2391;DHT22;22957;50.824;4.360;2023-08-12T05:01:59;21.20;99.90
2391;DHT22;22957;50.824;4.360;2023-08-12T05:04:24;21.40;99.90
2391;DHT22;22957;50.824;4.360;2023-08-12T05:06:50;21.30;99.90
2391;DHT22;22957;50.824;4.360;2023-08-12T05:09:15;21.30;99.90
2391;DHT22;22957;50.824;4.360;2023-08-12T05:11:41;21.20;99.90
2391;DHT22;22957;50.824;4.360;2023-08-12T05:14:06;21.30;99.90
2391;DHT22;22957;50.824;4.360;2023-08-12T05:16:32;21.30;99.90
2391;DHT22;22957;50.824;4.360;2023-08-12T05:18:58;21.10;99.90
2391;DHT22;22957;50.824;4.360;2023-08-12T05:21:23;21.30;99.90
2391;DHT22;22957;50.824;4.360;2023-08-12T05:23:49;21.40;99.90
2391;DHT22;22957;50.824;4.360;2023-08-12T05:26:15;21.30;99.90
2391;DHT22;22957;50.824;4.360;2023-08-12T05:28:40;21.40;99.90
2391;DHT22;22957;50.824;4.360;2023-08-12T05:31:06;21.40;99.90
2391;DHT22;22957;50.824;4.360;2023-08-12T05:33:31;21.40;99.90
2391;DHT22;22957;50.824;4.360;2023-08-12T05:35:57;21.20;99.90
2391;DHT22;22957;50.824;4.360;2023-08-12T05:38:22;21.20;99.90
2391;DHT22;22957;50.824;4.360;2023-08-12T05:40:48;21.00;99.90
2391;DHT22;22957;50.824;4.360;2023-08-12T05:43:14;21.00;99.90
2391;DHT22;22957;50.824;4.360;2023-08-12T05:45:39;21.00;99.90
2391;DHT22;22957;50.824;4.360;2023-08-12T05:48:05;21.20;99.90
2391;DHT22;22957;50.824;4.360;2023-08-12T05:50:30;21.20;99.90
2391;DHT22;22957;50.824;4.360;2023-08-12T05:52:56;21.10;99.90
2391;DHT22;22957;50.824;4.360;2023-08-12T05:55:22;21.00;99.90
2391;DHT22;22957;50.824;4.360;2023-08-12T05:57:47;21.10;99.90
2391;DHT22;22957;50.824;4.360;2023-08-12T06:00:13;21.20;99.90
2391;DHT22;22957;50.824;4.360;2023-08-12T06:02:39;21.20;99.90
2391;DHT22;22957;50.824;4.360;2023-08-12T06:05:05;21.20;99.90
2391;DHT22;22957;50.824;4.360;2023-08-12T06:07:30;21.30;99.90
2391;DHT22;22957;50.824;4.360;2023-08-12T06:09:56;21.40;99.90
2391;DHT22;22957;50.824;4.360;2023-08-12T06:12:21;21.40;99.90
2391;DHT22;22957;50.824;4.360;2023-08-12T06:14:47;21.40;99.90
2391;DHT22;22957;50.824;4.360;2023-08-12T06:17:13;21.50;99.90
2391;DHT22;22957;50.824;4.360;2023-08-12T06:19:38;21.30;99.90
2391;DHT22;22957;50.824;4.360;2023-08-12T06:22:04;21.40;99.90
2391;DHT22;22957;50.824;4.360;2023-08-12T06:24:29;21.40;99.90
2391;DHT22;22957;50.824;4.360;2023-08-12T06:26:55;21.20;99.90
2391;DHT22;22957;50.824;4.360;2023-08-12T06:29:21;21.20;99.90
2391;DHT22;22957;50.824;4.360;2023-08-12T06:31:46;21.30;99.90
2391;DHT22;22957;50.824;4.360;2023-08-12T06:34:12;21.30;99.90
2391;DHT22;22957;50.824;4.360;2023-08-12T06:36:37;21.30;99.90
2391;DHT22;22957;50.824;4.360;2023-08-12T06:39:03;21.20;99.90
2391;DHT22;22957;50.824;4.360;2023-08-12T06:41:29;21.30;99.90
2391;DHT22;22957;50.824;4.360;2023-08-12T06:43:54;21.50;99.90
2391;DHT22;22957;50.824;4.360;2023-08-12T06:46:20;21.60;99.90
2391;DHT22;22957;50.824;4.360;2023-08-12T06:48:45;21.70;99.90
2391;DHT22;22957;50.824;4.360;2023-08-12T06:51:11;21.50;99.90
2391;DHT22;22957;50.824;4.360;2023-08-12T06:53:39;21.50;99.90
2391;DHT22;22957;50.824;4.360;2023-08-12T06:56:04;21.30;99.90
2391;DHT22;22957;50.824;4.360;2023-08-12T06:58:31;21.10;99.90
2391;DHT22;22957;50.824;4.360;2023-08-12T07:00:57;21.20;99.90
2391;DHT22;22957;50.824;4.360;2023-08-12T07:03:24;21.30;99.90
2391;DHT22;22957;50.824;4.360;2023-08-12T07:05:51;21.20;99.90
2391;DHT22;22957;50.824;4.360;2023-08-12T07:08:17;21.30;99.90
2391;DHT22;22957;50.824;4.360;2023-08-12T07:10:42;21.20;99.90
2391;DHT22;22957;50.824;4.360;2023-08-12T07:13:08;21.40;99.90
2391;DHT22;22957;50.824;4.360;2023-08-12T07:15:33;21.60;99.90
2391;DHT22;22957;50.824;4.360;2023-08-12T07:17:59;21.80;99.90
2391;DHT22;22957;50.824;4.360;2023-08-12T07:20:25;21.90;99.90
2391;DHT22;22957;50.824;4.360;2023-08-12T07:22:51;21.80;99.90
2391;DHT22;22957;50.824;4.360;2023-08-12T07:25:17;21.70;99.90
2391;DHT22;22957;50.824;4.360;2023-08-12T07:27:42;21.70;99.90
2391;DHT22;22957;50.824;4.360;2023-08-12T07:30:09;21.80;99.90
2391;DHT22;22957;50.824;4.360;2023-08-12T07:32:36;21.80;99.90
2391;DHT22;22957;50.824;4.360;2023-08-12T07:35:03;21.70;99.90
2391;DHT22;22957;50.824;4.360;2023-08-12T07:37:29;21.40;99.90
2391;DHT22;22957;50.824;4.360;2023-08-12T07:39:54;21.50;99.90
2391;DHT22;22957;50.824;4.360;2023-08-12T07:42:20;21.60;99.90
2391;DHT22;22957;50.824;4.360;2023-08-12T07:44:46;21.60;99.90
2391;DHT22;22957;50.824;4.360;2023-08-12T07:47:12;21.40;99.90
2391;DHT22;22957;50.824;4.360;2023-08-12T07:49:38;21.40;99.90
2391;DHT22;22957;50.824;4.360;2023-08-12T07:52:03;21.70;99.90
2391;DHT22;22957;50.824;4.360;2023-08-12T07:54:29;21.40;99.90
2391;DHT22;22957;50.824;4.360;2023-08-12T07:56:55;21.30;99.90
2391;DHT22;22957;50.824;4.360;2023-08-12T07:59:20;21.30;99.90
2391;DHT22;22957;50.824;4.360;2023-08-12T08:01:46;21.40;99.90
2391;DHT22;22957;50.824;4.360;2023-08-12T08:04:12;21.60;99.90
2391;DHT22;22957;50.824;4.360;2023-08-12T08:06:37;21.70;99.90
2391;DHT22;22957;50.824;4.360;2023-08-12T08:09:03;21.50;99.90
2391;DHT22;22957;50.824;4.360;2023-08-12T08:11:30;21.30;99.90
2391;DHT22;22957;50.824;4.360;2023-08-12T08:13:58;21.20;99.90
2391;DHT22;22957;50.824;4.360;2023-08-12T08:16:24;21.20;99.90
2391;DHT22;22957;50.824;4.360;2023-08-12T08:18:49;21.20;99.90
2391;DHT22;22957;50.824;4.360;2023-08-12T08:21:15;21.00;99.90
2391;DHT22;22957;50.824;4.360;2023-08-12T08:23:41;21.20;99.90
2391;DHT22;22957;50.824;4.360;2023-08-12T08:26:07;21.20;99.90
2391;DHT22;22957;50.824;4.360;2023-08-12T08:28:32;21.20;99.90
2391;DHT22;22957;50.824;4.360;2023-08-12T08:30:58;21.40;99.90
2391;DHT22;22957;50.824;4.360;2023-08-12T08:33:25;21.50;99.90
2391;DHT22;22957;50.824;4.360;2023-08-12T08:35:51;21.90;99.90
2391;DHT22;22957;50.824;4.360;2023-08-12T08:38:17;22.00;99.90
2391;DHT22;22957;50.824;4.360;2023-08-12T08:40:42;21.70;99.90
2391;DHT22;22957;50.824;4.360;2023-08-12T08:43:08;21.40;99.90
2391;DHT22;22957;50.824;4.360;2023-08-12T08:45:34;21.40;99.90
2391;DHT22;22957;50.824;4.360;2023-08-12T08:48:01;21.70;99.90
2391;DHT22;22957;50.824;4.360;2023-08-12T08:50:31;22.00;99.90
2391;DHT22;22957;50.824;4.360;2023-08-12T08:52:57;22.30;99.90
2391;DHT22;22957;50.824;4.360;2023-08-12T08:55:23;22.50;99.90
2391;DHT22;22957;50.824;4.360;2023-08-12T08:57:49;22.60;99.90
2391;DHT22;22957;50.824;4.360;2023-08-12T09:00:16;22.70;99.90
2391;DHT22;22957;50.824;4.360;2023-08-12T09:02:45;22.80;99.90
2391;DHT22;22957;50.824;4.360;2023-08-12T09:05:13;23.10;99.90
2391;DHT22;22957;50.824;4.360;2023-08-12T09:07:41;23.40;99.90
2391;DHT22;22957;50.824;4.360;2023-08-12T09:10:07;23.80;99.90
2391;DHT22;22957;50.824;4.360;2023-08-12T09:12:34;24.20;99.90
2391;DHT22;22957;50.824;4.360;2023-08-12T09:14:59;24.50;99.90
2391;DHT22;22957;50.824;4.360;2023-08-12T09:17:25;24.60;99.90
2391;DHT22;22957;50.824;4.360;2023-08-12T09:19:51;24.50;99.90
2391;DHT22;22957;50.824;4.360;2023-08-12T09:22:17;24.60;99.90
2391;DHT22;22957;50.824;4.360;2023-08-12T09:24:43;24.70;99.90
2391;DHT22;22957;50.824;4.360;2023-08-12T09:27:09;24.60;99.90
2391;DHT22;22957;50.824;4.360;2023-08-12T09:29:36;24.90;99.90
2391;DHT22;22957;50.824;4.360;2023-08-12T09:32:20;25.20;99.90
2391;DHT22;22957;50.824;4.360;2023-08-12T09:34:53;25.30;99.90
2391;DHT22;22957;50.824;4.360;2023-08-12T09:37:20;25.10;99.90
2391;DHT22;22957;50.824;4.360;2023-08-12T09:39:48;24.90;99.90
2391;DHT22;22957;50.824;4.360;2023-08-12T09:42:15;24.70;99.90
2391;DHT22;22957;50.824;4.360;2023-08-12T09:44:42;24.30;99.90
2391;DHT22;22957;50.824;4.360;2023-08-12T09:47:08;24.20;99.90
2391;DHT22;22957;50.824;4.360;2023-08-12T09:49:35;24.10;99.90
2391;DHT22;22957;50.824;4.360;2023-08-12T09:52:04;24.00;99.90
2391;DHT22;22957;50.824;4.360;2023-08-12T09:54:34;24.20;99.90
2391;DHT22;22957;50.824;4.360;2023-08-12T09:57:01;24.10;99.90
2391;DHT22;22957;50.824;4.360;2023-08-12T09:59:35;24.10;99.90
2391;DHT22;22957;50.824;4.360;2023-08-12T10:02:03;23.40;99.90
2391;DHT22;22957;50.824;4.360;2023-08-12T10:04:44;23.70;99.90
2391;DHT22;22957;50.824;4.360;2023-08-12T10:07:11;23.80;99.90
2391;DHT22;22957;50.824;4.360;2023-08-12T10:09:40;24.30;99.90
2391;DHT22;22957;50.824;4.360;2023-08-12T10:12:07;24.70;99.90
2391;DHT22;22957;50.824;4.360;2023-08-12T10:14:34;24.80;99.90
2391;DHT22;22957;50.824;4.360;2023-08-12T10:17:00;25.10;99.90
2391;DHT22;22957;50.824;4.360;2023-08-12T10:19:26;25.50;99.90
2391;DHT22;22957;50.824;4.360;2023-08-12T10:21:56;25.60;99.90
2391;DHT22;22957;50.824;4.360;2023-08-12T10:24:26;25.90;99.90
2391;DHT22;22957;50.824;4.360;2023-08-12T10:26:52;25.80;99.90
2391;DHT22;22957;50.824;4.360;2023-08-12T10:29:18;25.90;99.90
2391;DHT22;22957;50.824;4.360;2023-08-12T10:31:46;26.30;99.90
2391;DHT22;22957;50.824;4.360;2023-08-12T10:34:22;26.80;99.90
2391;DHT22;22957;50.824;4.360;2023-08-12T10:36:53;26.70;99.90
2391;DHT22;22957;50.824;4.360;2023-08-12T10:39:24;27.40;99.90
2391;DHT22;22957;50.824;4.360;2023-08-12T10:41:51;27.70;99.90
2391;DHT22;22957;50.824;4.360;2023-08-12T10:44:20;29.10;99.90
2391;DHT22;22957;50.824;4.360;2023-08-12T10:46:52;29.10;99.90
2391;DHT22;22957;50.824;4.360;2023-08-12T10:49:20;29.20;99.90
2391;DHT22;22957;50.824;4.360;2023-08-12T10:57:08;29.50;99.90
2391;DHT22;22957;50.824;4.360;2023-08-12T11:02:21;28.60;99.90
2391;DHT22;22957;50.824;4.360;2023-08-12T11:04:56;27.80;99.90
2391;DHT22;22957;50.824;4.360;2023-08-12T11:07:32;29.00;99.90
2391;DHT22;22957;50.824;4.360;2023-08-12T11:10:16;29.50;99.90
2391;DHT22;22957;50.824;4.360;2023-08-12T11:12:48;29.00;99.90
2391;DHT22;22957;50.824;4.360;2023-08-12T11:15:14;29.80;99.90
2391;DHT22;22957;50.824;4.360;2023-08-12T11:17:41;29.50;99.90
2391;DHT22;22957;50.824;4.360;2023-08-12T11:20:09;30.20;99.90
2391;DHT22;22957;50.824;4.360;2023-08-12T11:22:37;29.70;99.90
2391;DHT22;22957;50.824;4.360;2023-08-12T11:25:09;29.90;99.90
2391;DHT22;22957;50.824;4.360;2023-08-12T11:27:45;29.60;99.90
2391;DHT22;22957;50.824;4.360;2023-08-12T11:30:16;29.80;99.90
2391;DHT22;22957;50.824;4.360;2023-08-12T11:32:43;30.20;99.90
2391;DHT22;22957;50.824;4.360;2023-08-12T11:35:09;31.50;99.90
2391;DHT22;22957;50.824;4.360;2023-08-12T11:37:37;32.00;99.90
2391;DHT22;22957;50.824;4.360;2023-08-12T11:40:04;31.70;99.90
2391;DHT22;22957;50.824;4.360;2023-08-12T11:42:30;31.80;99.90
2391;DHT22;22957;50.824;4.360;2023-08-12T11:44:57;31.80;99.90
2391;DHT22;22957;50.824;4.360;2023-08-12T11:47:22;32.20;99.90
2391;DHT22;22957;50.824;4.360;2023-08-12T11:49:48;32.60;99.90
2391;DHT22;22957;50.824;4.360;2023-08-12T11:52:14;32.60;99.90
2391;DHT22;22957;50.824;4.360;2023-08-12T11:54:40;33.40;99.90
2391;DHT22;22957;50.824;4.360;2023-08-12T11:57:05;31.50;99.90
2391;DHT22;22957;50.824;4.360;2023-08-12T11:59:31;30.60;99.90
2391;DHT22;22957;50.824;4.360;2023-08-12T12:01:57;31.00;99.90
2391;DHT22;22957;50.824;4.360;2023-08-12T12:04:23;30.10;99.90
2391;DHT22;22957;50.824;4.360;2023-08-12T12:06:49;30.50;99.90
2391;DHT22;22957;50.824;4.360;2023-08-12T12:09:15;30.70;99.90
2391;DHT22;22957;50.824;4.360;2023-08-12T12:11:43;30.20;99.90
2391;DHT22;22957;50.824;4.360;2023-08-12T12:14:10;30.60;99.90
2391;DHT22;22957;50.824;4.360;2023-08-12T12:16:44;30.30;99.90
2391;DHT22;22957;50.824;4.360;2023-08-12T12:19:16;30.30;99.90
2391;DHT22;22957;50.824;4.360;2023-08-12T12:21:42;30.80;99.90
2391;DHT22;22957;50.824;4.360;2023-08-12T12:24:10;30.90;99.90
2391;DHT22;22957;50.824;4.360;2023-08-12T12:26:36;31.00;99.90
2391;DHT22;22957;50.824;4.360;2023-08-12T12:29:05;31.30;99.90
2391;DHT22;22957;50.824;4.360;2023-08-12T12:31:35;31.30;99.90
2391;DHT22;22957;50.824;4.360;2023-08-12T12:34:02;31.10;99.90
2391;DHT22;22957;50.824;4.360;2023-08-12T12:36:28;31.70;99.90
2391;DHT22;22957;50.824;4.360;2023-08-12T12:38:54;31.50;99.90
2391;DHT22;22957;50.824;4.360;2023-08-12T12:41:19;31.20;99.90
2391;DHT22;22957;50.824;4.360;2023-08-12T12:43:45;31.30;99.90
2391;DHT22;22957;50.824;4.360;2023-08-12T12:46:11;29.70;99.90
2391;DHT22;22957;50.824;4.360;2023-08-12T12:48:36;29.90;99.90
2391;DHT22;22957;50.824;4.360;2023-08-12T12:51:02;30.00;99.90
2391;DHT22;22957;50.824;4.360;2023-08-12T12:53:28;30.40;99.90
2391;DHT22;22957;50.824;4.360;2023-08-12T12:55:53;30.60;99.90
2391;DHT22;22957;50.824;4.360;2023-08-12T12:58:19;31.00;99.90
2391;DHT22;22957;50.824;4.360;2023-08-12T13:00:47;30.20;99.90
2391;DHT22;22957;50.824;4.360;2023-08-12T13:03:13;30.20;99.90
2391;DHT22;22957;50.824;4.360;2023-08-12T13:05:38;29.90;99.90
2391;DHT22;22957;50.824;4.360;2023-08-12T13:08:05;30.50;99.90
2391;DHT22;22957;50.824;4.360;2023-08-12T13:10:30;29.90;99.90
2391;DHT22;22957;50.824;4.360;2023-08-12T13:12:56;29.90;99.90
2391;DHT22;22957;50.824;4.360;2023-08-12T13:15:22;30.50;99.90
2391;DHT22;22957;50.824;4.360;2023-08-12T13:17:49;30.60;99.90
2391;DHT22;22957;50.824;4.360;2023-08-12T13:20:15;30.00;99.90
2391;DHT22;22957;50.824;4.360;2023-08-12T13:22:40;29.50;99.90
2391;DHT22;22957;50.824;4.360;2023-08-12T13:25:06;29.00;99.90
2391;DHT22;22957;50.824;4.360;2023-08-12T13:27:32;29.00;99.90
2391;DHT22;22957;50.824;4.360;2023-08-12T13:29:58;28.50;99.90
2391;DHT22;22957;50.824;4.360;2023-08-12T13:32:23;28.60;99.90
2391;DHT22;22957;50.824;4.360;2023-08-12T13:34:49;28.40;99.90
2391;DHT22;22957;50.824;4.360;2023-08-12T13:37:14;28.70;99.90
2391;DHT22;22957;50.824;4.360;2023-08-12T13:39:40;28.70;99.90
2391;DHT22;22957;50.824;4.360;2023-08-12T13:42:06;28.80;99.90
2391;DHT22;22957;50.824;4.360;2023-08-12T13:44:31;28.90;99.90
2391;DHT22;22957;50.824;4.360;2023-08-12T13:46:57;29.50;99.90
2391;DHT22;22957;50.824;4.360;2023-08-12T13:49:22;29.70;99.90
2391;DHT22;22957;50.824;4.360;2023-08-12T13:51:48;29.00;99.90
2391;DHT22;22957;50.824;4.360;2023-08-12T13:54:13;29.10;99.90
2391;DHT22;22957;50.824;4.360;2023-08-12T13:56:39;28.60;99.90
2391;DHT22;22957;50.824;4.360;2023-08-12T13:59:05;28.80;99.90
2391;DHT22;22957;50.824;4.360;2023-08-12T14:01:30;29.50;99.90
2391;DHT22;22957;50.824;4.360;2023-08-12T14:03:56;28.60;99.90
2391;DHT22;22957;50.824;4.360;2023-08-12T14:06:21;28.80;99.90
2391;DHT22;22957;50.824;4.360;2023-08-12T14:08:47;28.80;99.90
2391;DHT22;22957;50.824;4.360;2023-08-12T14:11:12;28.60;99.90
2391;DHT22;22957;50.824;4.360;2023-08-12T14:13:38;28.60;99.90
2391;DHT22;22957;50.824;4.360;2023-08-12T14:16:04;28.10;99.90
2391;DHT22;22957;50.824;4.360;2023-08-12T14:18:30;28.10;99.90
2391;DHT22;22957;50.824;4.360;2023-08-12T14:20:55;28.40;99.90
2391;DHT22;22957;50.824;4.360;2023-08-12T14:23:21;28.70;99.90
2391;DHT22;22957;50.824;4.360;2023-08-12T14:25:48;28.50;99.90
2391;DHT22;22957;50.824;4.360;2023-08-12T14:28:13;28.40;99.90
2391;DHT22;22957;50.824;4.360;2023-08-12T14:30:39;28.40;99.90
2391;DHT22;22957;50.824;4.360;2023-08-12T14:33:05;28.70;99.90
2391;DHT22;22957;50.824;4.360;2023-08-12T14:35:33;29.00;99.90
2391;DHT22;22957;50.824;4.360;2023-08-12T14:37:59;28.80;99.90
2391;DHT22;22957;50.824;4.360;2023-08-12T14:40:24;28.50;99.90
2391;DHT22;22957;50.824;4.360;2023-08-12T14:42:50;29.20;99.90
2391;DHT22;22957;50.824;4.360;2023-08-12T14:45:15;29.40;99.90
2391;DHT22;22957;50.824;4.360;2023-08-12T14:47:41;29.20;99.90
2391;DHT22;22957;50.824;4.360;2023-08-12T14:50:07;29.40;99.90
2391;DHT22;22957;50.824;4.360;2023-08-12T14:52:34;29.50;99.90
2391;DHT22;22957;50.824;4.360;2023-08-12T14:54:59;29.70;99.90
2391;DHT22;22957;50.824;4.360;2023-08-12T14:57:25;29.20;99.90
2391;DHT22;22957;50.824;4.360;2023-08-12T14:59:51;28.50;99.90
2391;DHT22;22957;50.824;4.360;2023-08-12T15:02:25;28.80;99.90
2391;DHT22;22957;50.824;4.360;2023-08-12T15:04:51;28.40;99.90
2391;DHT22;22957;50.824;4.360;2023-08-12T15:07:17;28.30;99.90
2391;DHT22;22957;50.824;4.360;2023-08-12T15:09:44;28.60;99.90
2391;DHT22;22957;50.824;4.360;2023-08-12T15:12:09;28.70;99.90
2391;DHT22;22957;50.824;4.360;2023-08-12T15:14:35;28.80;99.90
2391;DHT22;22957;50.824;4.360;2023-08-12T15:17:00;28.70;99.90
2391;DHT22;22957;50.824;4.360;2023-08-12T15:19:26;29.00;99.90
2391;DHT22;22957;50.824;4.360;2023-08-12T15:21:52;28.40;99.90
2391;DHT22;22957;50.824;4.360;2023-08-12T15:24:17;28.50;99.90
2391;DHT22;22957;50.824;4.360;2023-08-12T15:26:43;28.40;99.90
2391;DHT22;22957;50.824;4.360;2023-08-12T15:29:08;27.70;99.90
2391;DHT22;22957;50.824;4.360;2023-08-12T15:31:35;28.00;99.90
2391;DHT22;22957;50.824;4.360;2023-08-12T15:34:01;27.40;99.90
2391;DHT22;22957;50.824;4.360;2023-08-12T15:36:27;27.70;99.90
2391;DHT22;22957;50.824;4.360;2023-08-12T15:38:52;28.20;99.90
2391;DHT22;22957;50.824;4.360;2023-08-12T15:41:18;27.70;99.90
2391;DHT22;22957;50.824;4.360;2023-08-12T15:43:45;27.40;99.90
2391;DHT22;22957;50.824;4.360;2023-08-12T15:46:11;27.50;99.90
2391;DHT22;22957;50.824;4.360;2023-08-12T15:48:37;27.70;99.90
2391;DHT22;22957;50.824;4.360;2023-08-12T15:51:03;28.10;99.90
2391;DHT22;22957;50.824;4.360;2023-08-12T15:53:29;28.00;99.90